KDEH/DEH METAR and TAF weather

Enter ICAO airport designator
Station Type Date Time Source
KDEH METAR 2020/12/05 05:35 UTC NOAA

KDEH 050535Z AUTO 00000KT 10SM CLR M03/M03 A3007 RMK AO2


Station Type Date Time Source
KDEH Decoded METAR 2020/12/05 05:35 UTC NOAA

Decorah, IA, United States (KDEH) 43-17N 091-44W
Dec 05, 2020 - 12:35 AM EST / 2020.12.05 0535 UTC
Wind: Calm:0
Visibility: 10 mile(s):0
Sky conditions: clear
Temperature: 26 F (-3 C)
Dew Point: 26 F (-3 C)
Relative Humidity: 100%
Pressure (altimeter): 30.07 in. Hg (1018 hPa)
ob: KDEH 050535Z AUTO 00000KT 10SM CLR M03/M03 A3007 RMK AO2
cycle: 5

Station Type Date Time Source
KDEH TAF UTC NOAA

Error!

Example: see airport list